Time;durP1;ratioP1;P1;durP2;ratioP2;P2;SDS_P1;SDS_P2;PMS_P1;PMS_P2;Temp;Humidity;BMP_temperature;BMP_pressure;BME280_temperature;BME280_humidity;BME280_pressure;Samples;Min_cycle;Max_cycle;Signal;HPM_P1;HPM_P2
2022/08/22 00:02:32;;;;;;;1.88;1.77;;;22.80;97.10;;;;;;6212054;23;20016;-77
2022/08/22 00:05:13;;;;;;;2.00;1.80;;;22.70;97.70;;;;;;6211841;23;20012;-77
2022/08/22 00:08:06;;;;;;;2.20;2.00;;;22.70;96.90;;;;;;6213073;23;20001;-77
2022/08/22 00:11:02;;;;;;;4.10;2.10;;;22.60;97.80;;;;;;6209135;23;20009;-77
2022/08/22 00:13:48;;;;;;;2.03;1.83;;;22.60;97.10;;;;;;6211580;23;20031;-77
2022/08/22 00:16:25;;;;;;;2.45;2.00;;;22.50;97.30;;;;;;6213435;23;20004;-77
2022/08/22 00:19:04;;;;;;;1.67;1.58;;;22.50;96.90;;;;;;6212663;23;20433;-77
2022/08/22 00:21:44;;;;;;;8.95;1.70;;;22.40;97.20;;;;;;6213434;23;20029;-77
2022/08/22 00:24:16;;;;;;;1.70;1.60;;;22.40;97.10;;;;;;6212951;23;20008;-77
2022/08/22 00:26:58;;;;;;;2.08;1.80;;;22.40;98.20;;;;;;6211702;23;20016;-77
2022/08/22 00:29:31;;;;;;;1.63;1.38;;;22.40;96.60;;;;;;6211859;23;20008;-77
2022/08/22 00:32:14;;;;;;;2.45;1.92;;;22.40;96.80;;;;;;6211441;23;20083;-76
2022/08/22 00:34:57;;;;;;;3.65;1.67;;;22.30;96.70;;;;;;6211836;23;20027;-77
2022/08/22 00:37:31;;;;;;;2.45;2.17;;;22.30;96.80;;;;;;6213125;23;20008;-77
2022/08/22 00:40:01;;;;;;;2.10;1.63;;;22.30;97.50;;;;;;6213497;23;20008;-77
2022/08/22 00:42:30;;;;;;;1.77;1.48;;;22.30;96.50;;;;;;6211559;23;20075;-76
2022/08/22 00:45:32;;;;;;;2.00;1.90;;;22.20;96.70;;;;;;6211731;23;20343;-77
2022/08/22 00:48:09;;;;;;;2.45;1.80;;;22.20;96.90;;;;;;6192250;23;20059;-77
2022/08/22 00:50:48;;;;;;;3.00;1.70;;;22.20;97.10;;;;;;6211601;23;20016;-77
2022/08/22 00:53:38;;;;;;;3.03;1.85;;;22.20;96.90;;;;;;6211391;23;20355;-77
2022/08/22 00:56:52;;;;;;;2.28;2.08;;;22.10;97.00;;;;;;6213417;23;20011;-77
2022/08/22 00:59:33;;;;;;;4.05;1.90;;;22.10;97.10;;;;;;6156498;23;20499;-77
2022/08/22 01:02:02;;;;;;;2.85;1.73;;;22.10;97.80;;;;;;6212565;23;19996;-77
2022/08/22 01:04:45;;;;;;;2.15;1.90;;;22.00;98.10;;;;;;6212651;23;20035;-77
2022/08/22 01:07:38;;;;;;;3.03;1.90;;;22.00;98.10;;;;;;6211086;23;20008;-76
2022/08/22 01:10:39;;;;;;;2.92;1.98;;;22.00;98.30;;;;;;6211301;23;20004;-76
2022/08/22 01:13:33;;;;;;;1.70;1.60;;;21.90;98.20;;;;;;6156133;23;20001;-76
2022/08/22 01:16:29;;;;;;;1.80;1.70;;;21.90;97.60;;;;;;6211498;23;20705;-76
2022/08/22 01:19:20;;;;;;;2.72;1.95;;;21.90;97.60;;;;;;6212388;23;20383;-77
2022/08/22 01:22:24;;;;;;;1.77;1.67;;;21.80;98.20;;;;;;6213042;23;20000;-77
2022/08/22 01:25:17;;;;;;;3.03;2.03;;;21.80;98.50;;;;;;6212919;23;20005;-77
2022/08/22 01:28:02;;;;;;;3.42;1.90;;;21.70;99.60;;;;;;6212451;23;20423;-76
2022/08/22 01:30:50;;;;;;;3.05;1.73;;;21.60;99.90;;;;;;6212884;23;20051;-77
2022/08/22 01:33:47;;;;;;;1.73;1.63;;;21.50;99.90;;;;;;6210941;23;20005;-77
2022/08/22 01:36:33;;;;;;;1.90;1.60;;;21.50;98.90;;;;;;6212803;23;20005;-77
2022/08/22 01:39:23;;;;;;;2.38;1.60;;;21.40;99.60;;;;;;6211747;23;20095;-77
2022/08/22 01:42:40;;;;;;;2.42;1.88;;;21.30;99.90;;;;;;6211444;23;20005;-77
2022/08/22 01:45:23;;;;;;;4.43;1.95;;;21.30;99.90;;;;;;6091033;23;20059;-77
2022/08/22 01:48:07;;;;;;;1.85;1.52;;;21.20;99.90;;;;;;6066655;23;20010;-77
2022/08/22 01:50:48;;;;;;;3.63;2.05;;;21.10;99.90;;;;;;6180002;23;20451;-77
2022/08/22 01:53:23;;;;;;;3.47;1.90;;;21.10;99.90;;;;;;6212305;23;20001;-77
2022/08/22 01:56:15;;;;;;;2.10;1.90;;;21.00;99.90;;;;;;6211027;23;20000;-77
2022/08/22 01:58:54;;;;;;;3.13;1.80;;;21.00;99.90;;;;;;6210576;23;20433;-77
2022/08/22 02:01:34;;;;;;;3.30;2.20;;;21.00;99.90;;;;;;6210867;23;20061;-77
2022/08/22 02:04:15;;;;;;;3.55;2.13;;;20.90;99.90;;;;;;6212042;23;20502;-77
2022/08/22 02:06:59;;;;;;;2.22;1.90;;;20.90;99.90;;;;;;6211081;23;20037;-77
2022/08/22 02:09:40;;;;;;;2.55;2.10;;;20.90;99.90;;;;;;6210841;23;20443;-77
2022/08/22 02:12:37;;;;;;;3.47;2.30;;;20.80;99.90;;;;;;6212590;23;20001;-77
2022/08/22 02:15:44;;;;;;;2.80;1.90;;;20.70;99.90;;;;;;6210929;23;20005;-78
2022/08/22 02:18:31;;;;;;;2.97;2.35;;;20.70;99.90;;;;;;6080990;23;20097;-78
2022/08/22 02:20:59;;;;;;;2.22;2.00;;;20.60;99.90;;;;;;6212604;23;20020;-77
2022/08/22 02:23:43;;;;;;;6.18;2.10;;;20.60;99.90;;;;;;6212591;23;20420;-77
2022/08/22 02:26:22;;;;;;;2.47;2.28;;;20.50;99.90;;;;;;6214556;23;20001;-77
2022/08/22 02:28:57;;;;;;;2.20;1.98;;;20.50;99.90;;;;;;6213924;23;20024;-77
2022/08/22 02:31:32;;;;;;;3.13;1.90;;;20.50;99.90;;;;;;6214507;23;20425;-76
2022/08/22 02:34:01;;;;;;;2.17;1.98;;;20.40;99.90;;;;;;6214175;23;20004;-76
2022/08/22 02:36:42;;;;;;;6.35;2.10;;;20.40;99.90;;;;;;6212675;23;20418;-76
2022/08/22 02:39:31;;;;;;;3.22;2.35;;;20.40;99.90;;;;;;6212220;23;20013;-77
2022/08/22 02:42:21;;;;;;;3.30;1.92;;;20.40;99.90;;;;;;6214159;23;20005;-76
2022/08/22 02:45:10;;;;;;;2.58;2.38;;;20.40;99.90;;;;;;6212741;23;20005;-77
2022/08/22 02:47:55;;;;;;;3.45;1.98;;;20.40;99.90;;;;;;6212612;23;20005;-76
2022/08/22 02:50:46;;;;;;;2.58;2.15;;;20.40;99.90;;;;;;6212995;23;20000;-76
2022/08/22 02:53:22;;;;;;;2.55;2.03;;;20.30;99.90;;;;;;6212224;23;20013;-76
2022/08/22 02:56:13;;;;;;;8.07;2.00;;;20.30;99.90;;;;;;6214364;23;20181;-76
2022/08/22 02:58:52;;;;;;;2.90;1.90;;;20.30;99.90;;;;;;6211788;23;20054;-77
2022/08/22 03:01:34;;;;;;;2.30;2.10;;;20.30;99.90;;;;;;6212475;23;20498;-76
2022/08/22 03:04:15;;;;;;;2.58;2.10;;;20.30;99.90;;;;;;6212072;23;20012;-76
2022/08/22 03:06:44;;;;;;;2.03;1.88;;;20.20;99.90;;;;;;6214113;23;20012;-76
2022/08/22 03:09:13;;;;;;;6.30;2.33;;;20.20;99.90;;;;;;6211882;23;20097;-76
2022/08/22 03:11:43;;;;;;;3.70;1.90;;;20.30;99.90;;;;;;6213964;23;20259;-76
2022/08/22 03:14:13;;;;;;;2.28;1.90;;;20.20;99.90;;;;;;6211923;23;19997;-77
2022/08/22 03:17:09;;;;;;;2.20;2.00;;;20.30;99.90;;;;;;6212184;23;20083;-76
2022/08/22 03:19:55;;;;;;;1.90;1.80;;;20.20;99.90;;;;;;6212113;23;20079;-76
2022/08/22 03:22:54;;;;;;;3.40;2.17;;;20.20;99.90;;;;;;6212227;23;20001;-76
2022/08/22 03:25:51;;;;;;;2.83;2.40;;;20.30;99.90;;;;;;6214220;23;20052;-76
2022/08/22 03:28:36;;;;;;;2.35;2.00;;;20.30;99.90;;;;;;6213430;23;20004;-76
2022/08/22 03:31:13;;;;;;;2.80;2.30;;;20.40;99.90;;;;;;6212357;23;20005;-76
2022/08/22 03:33:41;;;;;;;6.38;2.20;;;20.40;99.90;;;;;;6212017;23;20016;-76
2022/08/22 03:36:15;;;;;;;2.17;1.92;;;20.40;99.90;;;;;;6211998;23;20008;-76
2022/08/22 03:39:11;;;;;;;2.38;1.90;;;20.50;99.90;;;;;;6213407;23;20028;-76
2022/08/22 03:41:37;;;;;;;2.97;2.20;;;20.40;99.90;;;;;;6192566;23;20462;-76
2022/08/22 03:44:41;;;;;;;2.03;1.90;;;20.40;99.90;;;;;;6213190;23;20028;-76
2022/08/22 03:47:43;;;;;;;2.65;2.20;;;20.30;99.90;;;;;;6213262;23;20004;-76
2022/08/22 03:50:18;;;;;;;2.63;2.28;;;20.20;99.90;;;;;;6212063;23;20013;-77
2022/08/22 03:53:13;;;;;;;2.80;2.28;;;20.20;99.90;;;;;;6213113;23;20003;-77
2022/08/22 03:55:48;;;;;;;4.35;2.00;;;20.10;99.90;;;;;;6212168;23;20004;-76
2022/08/22 03:58:40;;;;;;;2.80;1.95;;;20.10;99.90;;;;;;6212838;23;20036;-77
2022/08/22 04:01:41;;;;;;;2.65;1.95;;;20.10;99.90;;;;;;6212249;23;20333;-76
2022/08/22 04:04:09;;;;;;;3.28;2.40;;;20.00;99.90;;;;;;6213190;23;20004;-76
2022/08/22 04:07:06;;;;;;;2.38;2.00;;;20.00;99.90;;;;;;6212011;23;20310;-76
2022/08/22 04:09:58;;;;;;;3.35;1.77;;;19.90;99.90;;;;;;6213347;23;20009;-77
2022/08/22 04:12:27;;;;;;;2.20;2.00;;;20.00;99.90;;;;;;6156562;23;20079;-77
2022/08/22 04:15:37;;;;;;;4.90;2.28;;;20.00;99.90;;;;;;6213565;23;20039;-76
2022/08/22 04:18:21;;;;;;;4.15;2.45;;;20.00;99.90;;;;;;6091200;23;20018;-76
2022/08/22 04:21:16;;;;;;;2.92;2.15;;;20.00;99.90;;;;;;6210785;23;20009;-76
2022/08/22 04:23:57;;;;;;;2.35;2.15;;;19.90;99.90;;;;;;6199425;23;20488;-76
2022/08/22 04:26:28;;;;;;;3.05;2.30;;;19.90;99.90;;;;;;6213422;23;20142;-76
2022/08/22 04:29:04;;;;;;;3.85;2.30;;;19.90;99.90;;;;;;6211157;23;20012;-76
2022/08/22 04:31:40;;;;;;;3.13;2.53;;;19.80;99.90;;;;;;6213461;23;20637;-76
2022/08/22 04:34:24;;;;;;;2.58;2.30;;;19.80;99.90;;;;;;6211421;23;20000;-76
2022/08/22 04:37:00;;;;;;;2.58;2.28;;;19.80;99.90;;;;;;6213257;23;20016;-76
2022/08/22 04:39:50;;;;;;;3.63;2.72;;;19.80;99.90;;;;;;6211685;23;20044;-76
2022/08/22 04:42:28;;;;;;;2.25;2.05;;;19.90;99.90;;;;;;6211365;23;20087;-76
2022/08/22 04:45:11;;;;;;;2.92;2.00;;;19.80;99.90;;;;;;6212815;23;20080;-76
2022/08/22 04:47:59;;;;;;;3.47;2.63;;;19.80;99.90;;;;;;6211342;23;20000;-76
2022/08/22 04:50:33;;;;;;;2.55;2.30;;;19.90;99.90;;;;;;6211761;23;20009;-76
2022/08/22 04:53:18;;;;;;;3.25;2.30;;;19.90;99.90;;;;;;6211313;23;20011;-76
2022/08/22 04:56:02;;;;;;;4.65;2.30;;;19.90;99.90;;;;;;6213373;23;20080;-75
2022/08/22 04:58:54;;;;;;;3.80;2.35;;;19.90;99.90;;;;;;6210859;23;20436;-77
2022/08/22 05:01:42;;;;;;;2.78;2.17;;;20.00;99.90;;;;;;6213120;23;20005;-77
2022/08/22 05:04:19;;;;;;;2.83;1.90;;;20.00;99.90;;;;;;6211014;23;20005;-77
2022/08/22 05:06:52;;;;;;;6.32;2.50;;;20.00;99.90;;;;;;6212527;23;20027;-77
2022/08/22 05:09:24;;;;;;;2.72;2.42;;;20.00;99.90;;;;;;6212912;23;20373;-77
2022/08/22 05:11:53;;;;;;;2.65;2.38;;;20.00;99.90;;;;;;6211486;23;20317;-77
2022/08/22 05:14:34;;;;;;;3.25;2.30;;;20.00;99.90;;;;;;6211176;23;20008;-78
2022/08/22 05:17:03;;;;;;;8.93;2.42;;;20.10;99.90;;;;;;6212393;23;20098;-77
2022/08/22 05:19:38;;;;;;;6.97;2.33;;;20.10;99.90;;;;;;6212791;23;20009;-77
2022/08/22 05:22:07;;;;;;;2.30;2.00;;;20.10;99.90;;;;;;6210638;23;20099;-77
2022/08/22 05:24:41;;;;;;;4.32;2.60;;;20.10;99.90;;;;;;6211116;23;20009;-76
2022/08/22 05:27:17;;;;;;;3.58;2.40;;;20.20;99.90;;;;;;6210685;23;20082;-74
2022/08/22 05:29:47;;;;;;;6.78;2.40;;;20.20;99.90;;;;;;6213032;23;20031;-76
2022/08/22 05:32:24;;;;;;;5.10;2.40;;;20.20;99.90;;;;;;6212685;23;20459;-75
2022/08/22 05:34:53;;;;;;;7.88;2.80;;;20.30;99.90;;;;;;6212933;23;20087;-75
2022/08/22 05:37:24;;;;;;;4.25;2.50;;;20.40;99.90;;;;;;6212539;23;20000;-75
2022/08/22 05:39:57;;;;;;;5.18;2.40;;;20.30;99.90;;;;;;6210989;23;20012;-76
2022/08/22 05:42:25;;;;;;;;;;;20.40;99.90;;;;;;6212928;23;20043;-75
2022/08/22 05:44:53;;;;;;;5.75;2.63;;;20.40;99.90;;;;;;6212894;23;19907;-75
2022/08/22 05:47:38;;;;;;;7.80;2.80;;;20.50;99.90;;;;;;6210652;23;20007;-76
2022/08/22 05:50:18;;;;;;;6.30;2.55;;;20.50;99.90;;;;;;6212539;23;20031;-77
2022/08/22 05:52:57;;;;;;;4.60;2.40;;;20.60;99.90;;;;;;6210453;23;20084;-76
2022/08/22 05:55:51;;;;;;;5.22;2.80;;;20.60;99.90;;;;;;6212890;23;20051;-76
2022/08/22 05:58:17;;;;;;;6.70;3.08;;;20.70;99.90;;;;;;6212217;23;20008;-77
2022/08/22 06:00:47;;;;;;;4.47;2.50;;;20.80;99.90;;;;;;6212385;23;20451;-77
2022/08/22 06:03:24;;;;;;;3.88;2.67;;;20.90;99.90;;;;;;6212242;23;19997;-77
2022/08/22 06:05:55;;;;;;;5.68;3.08;;;20.90;99.90;;;;;;6212150;23;20024;-77
2022/08/22 06:08:22;;;;;;;6.05;2.75;;;21.00;99.90;;;;;;6212104;23;20475;-77
2022/08/22 06:10:55;;;;;;;3.80;2.15;;;21.10;99.90;;;;;;6211143;23;20008;-77
2022/08/22 06:13:37;;;;;;;9.45;2.33;;;21.10;99.90;;;;;;6212213;23;20137;-77
2022/08/22 06:16:06;;;;;;;4.13;2.05;;;21.20;99.90;;;;;;6211097;23;20012;-75
2022/08/22 06:18:35;;;;;;;4.72;2.50;;;21.30;99.90;;;;;;6211391;23;20019;-77
2022/08/22 06:21:09;;;;;;;2.40;2.17;;;21.30;99.90;;;;;;6207299;23;20044;-77
2022/08/22 06:24:02;;;;;;;4.75;3.00;;;21.40;99.90;;;;;;6205357;23;20012;-76
2022/08/22 06:26:34;;;;;;;4.40;2.38;;;21.50;99.90;;;;;;6207610;23;20256;-77
2022/08/22 06:29:01;;;;;;;7.50;2.30;;;21.60;99.90;;;;;;6207516;23;20004;-76
2022/08/22 06:31:43;;;;;;;3.50;2.22;;;21.70;99.90;;;;;;6208296;23;20172;-77
2022/08/22 06:34:23;;;;;;;6.55;2.42;;;21.80;99.90;;;;;;6207232;23;20004;-76
2022/08/22 06:36:50;;;;;;;4.55;2.50;;;21.90;99.90;;;;;;6209734;23;20001;-76
2022/08/22 06:39:22;;;;;;;4.55;2.90;;;22.00;99.90;;;;;;6207392;23;20020;-76
2022/08/22 06:41:53;;;;;;;;;;;22.10;99.90;;;;;;6208244;23;19996;-76
2022/08/22 06:44:32;;;;;;;5.75;2.70;;;22.20;99.90;;;;;;6210495;23;19903;-76
2022/08/22 06:47:00;;;;;;;6.10;2.75;;;22.20;99.90;;;;;;6211732;23;20031;-76
2022/08/22 06:49:27;;;;;;;5.60;3.10;;;22.40;99.90;;;;;;6212339;23;20039;-77
2022/08/22 06:52:06;;;;;;;9.32;3.13;;;22.40;99.90;;;;;;6211987;23;20001;-76
2022/08/22 06:54:36;;;;;;;10.77;3.47;;;22.50;99.90;;;;;;6212112;23;20001;-77
2022/08/22 06:57:05;;;;;;;6.57;2.90;;;22.60;99.90;;;;;;6210143;23;20031;-77
2022/08/22 06:59:34;;;;;;;13.63;2.80;;;22.70;99.90;;;;;;6210437;23;20043;-76
2022/08/22 07:02:23;;;;;;;6.57;3.00;;;22.80;99.90;;;;;;6211745;23;20008;-76
2022/08/22 07:04:50;;;;;;;12.20;3.35;;;22.90;99.90;;;;;;6212131;23;19993;-77
2022/08/22 07:07:18;;;;;;;13.35;3.60;;;22.90;99.90;;;;;;6212145;23;20007;-76
2022/08/22 07:09:54;;;;;;;10.10;3.30;;;23.10;99.90;;;;;;6214300;23;20452;-77
2022/08/22 07:12:34;;;;;;;7.35;2.78;;;23.10;99.90;;;;;;6213753;23;20009;-77
2022/08/22 07:15:18;;;;;;;5.72;2.50;;;23.20;99.90;;;;;;6212662;23;20007;-76
2022/08/22 07:17:50;;;;;;;3.35;2.22;;;23.30;99.90;;;;;;6211705;23;20079;-76
2022/08/22 07:20:40;;;;;;;4.05;2.30;;;23.40;99.90;;;;;;6212458;23;20048;-77
2022/08/22 07:23:13;;;;;;;4.65;2.42;;;23.50;99.90;;;;;;6213817;23;20001;-77
2022/08/22 07:26:01;;;;;;;6.28;2.08;;;23.60;99.90;;;;;;6211907;23;20001;-77
2022/08/22 07:28:43;;;;;;;4.25;1.90;;;23.70;99.90;;;;;;6211997;23;20020;-77
2022/08/22 07:31:36;;;;;;;7.70;2.17;;;23.90;99.90;;;;;;6213909;23;20009;-77
2022/08/22 07:34:07;;;;;;;;;;;24.00;99.90;;;;;;6213987;23;20324;-77
2022/08/22 07:36:55;;;;;;;1.60;1.50;;;24.00;99.90;;;;;;6213933;23;19926;-77
2022/08/22 07:39:45;;;;;;;2.75;1.88;;;24.00;98.10;;;;;;6213592;23;20008;-77
2022/08/22 07:42:21;;;;;;;3.17;2.03;;;24.10;97.90;;;;;;6213802;23;20050;-77
2022/08/22 07:45:12;;;;;;;1.70;1.48;;;24.10;98.50;;;;;;6212001;23;20015;-77
2022/08/22 07:47:59;;;;;;;4.57;1.80;;;24.20;96.70;;;;;;6211503;23;20005;-77
2022/08/22 07:50:35;;;;;;;3.88;2.00;;;24.30;96.60;;;;;;6211971;23;20317;-77
2022/08/22 07:53:27;;;;;;;2.50;1.85;;;24.30;96.40;;;;;;6211907;23;20028;-77
2022/08/22 07:55:55;;;;;;;2.53;2.20;;;24.30;96.90;;;;;;6157753;23;20005;-77
2022/08/22 07:58:24;;;;;;;2.50;1.73;;;24.30;96.50;;;;;;6211807;23;20240;-77
2022/08/22 08:00:50;;;;;;;3.63;1.50;;;24.40;95.90;;;;;;6212110;23;20058;-77
2022/08/22 08:03:23;;;;;;;5.18;2.10;;;24.40;95.50;;;;;;6213377;23;20001;-77
2022/08/22 08:05:49;;;;;;;3.15;2.00;;;24.50;95.90;;;;;;6211819;23;20336;-77
2022/08/22 08:08:22;;;;;;;2.15;1.95;;;24.50;96.30;;;;;;6211613;23;20058;-77
2022/08/22 08:10:50;;;;;;;6.53;2.00;;;24.60;96.40;;;;;;6213632;23;20391;-77
2022/08/22 08:13:25;;;;;;;5.60;1.70;;;24.60;96.40;;;;;;6213479;23;20008;-76
2022/08/22 08:15:51;;;;;;;2.95;1.90;;;24.60;95.20;;;;;;6211719;23;20394;-77
2022/08/22 08:18:22;;;;;;;2.53;1.58;;;24.70;96.00;;;;;;6212682;23;20092;-77
2022/08/22 08:21:23;;;;;;;5.07;1.73;;;24.70;95.80;;;;;;6213024;23;20034;-77
2022/08/22 08:23:49;;;;;;;4.95;2.25;;;24.70;96.10;;;;;;6213196;23;20076;-77
2022/08/22 08:26:20;;;;;;;11.07;2.47;;;24.60;96.30;;;;;;6213737;23;20001;-78
2022/08/22 08:28:53;;;;;;;5.00;2.10;;;24.60;97.50;;;;;;6213142;23;19997;-77
2022/08/22 08:31:34;;;;;;;4.97;2.15;;;24.60;96.80;;;;;;6213904;23;20000;-77
2022/08/22 08:34:23;;;;;;;7.83;1.97;;;24.60;96.80;;;;;;6211590;23;20032;-77
2022/08/22 08:36:52;;;;;;;2.85;1.52;;;24.70;96.50;;;;;;6209868;23;20015;-77
2022/08/22 08:39:33;;;;;;;10.07;2.00;;;24.70;97.10;;;;;;6210218;23;20012;-77
2022/08/22 08:42:26;;;;;;;3.05;2.00;;;24.70;97.20;;;;;;6211535;23;20009;-77
2022/08/22 08:45:00;;;;;;;6.45;1.92;;;24.90;97.60;;;;;;6213292;23;20008;-78
2022/08/22 08:47:54;;;;;;;4.03;1.98;;;25.00;96.80;;;;;;6211076;23;20008;-77
2022/08/22 08:50:25;;;;;;;1.90;1.80;;;25.00;96.60;;;;;;6213333;23;20001;-78
2022/08/22 08:53:29;;;;;;;2.10;1.40;;;25.00;96.20;;;;;;6213068;23;20011;-77
2022/08/22 08:56:24;;;;;;;2.88;1.70;;;25.00;96.60;;;;;;6211635;23;20417;-77
2022/08/22 08:59:41;;;;;;;1.80;1.70;;;25.00;96.20;;;;;;6212807;23;20000;-77
2022/08/22 09:02:20;;;;;;;2.15;1.70;;;25.10;96.50;;;;;;6161707;23;20008;-77
2022/08/22 09:05:04;;;;;;;3.53;1.67;;;25.10;96.10;;;;;;6213065;23;20000;-77
2022/08/22 09:07:38;;;;;;;4.25;1.75;;;25.20;96.20;;;;;;6212292;23;20028;-77
2022/08/22 09:10:38;;;;;;;3.65;1.90;;;25.20;96.30;;;;;;6211397;23;20040;-77
2022/08/22 09:13:25;;;;;;;2.90;1.58;;;25.30;96.30;;;;;;6212615;23;20432;-77
2022/08/22 09:16:23;;;;;;;3.95;1.63;;;25.30;97.10;;;;;;6211375;23;20072;-77
2022/08/22 09:19:26;;;;;;;1.48;1.38;;;25.40;96.70;;;;;;6210591;23;20020;-77
2022/08/22 09:22:12;;;;;;;2.13;1.60;;;25.50;96.20;;;;;;6212570;23;20016;-76
2022/08/22 09:25:06;;;;;;;1.65;1.40;;;25.50;96.00;;;;;;6211191;23;20012;-77
2022/08/22 09:27:44;;;;;;;3.17;1.63;;;25.50;95.70;;;;;;6212854;23;20005;-78
2022/08/22 09:30:14;;;;;;;3.60;1.60;;;25.50;96.20;;;;;;6212590;23;20027;-77
2022/08/22 09:32:46;;;;;;;3.50;1.80;;;25.60;96.20;;;;;;6210761;23;20010;-77
2022/08/22 09:35:56;;;;;;;3.75;1.70;;;25.60;95.50;;;;;;6211331;23;20074;-78
2022/08/22 09:38:40;;;;;;;2.58;1.90;;;25.70;95.80;;;;;;6173240;23;20088;-77
2022/08/22 09:41:22;;;;;;;4.97;1.67;;;25.70;96.90;;;;;;6213109;23;20004;-78
2022/08/22 09:44:24;;;;;;;1.60;1.50;;;25.80;96.90;;;;;;6212217;23;20005;-77
2022/08/22 09:47:11;;;;;;;1.77;1.50;;;25.80;96.60;;;;;;6210421;23;20057;-78
2022/08/22 09:50:04;;;;;;;1.67;1.50;;;25.80;97.50;;;;;;6212886;23;20379;-78
2022/08/22 09:52:50;;;;;;;4.60;1.63;;;25.80;96.70;;;;;;6210854;23;20104;-78
2022/08/22 09:55:58;;;;;;;2.17;1.67;;;25.80;96.00;;;;;;6212939;23;20000;-78
2022/08/22 09:58:58;;;;;;;4.05;1.73;;;25.90;96.60;;;;;;6210495;23;20008;-77
2022/08/22 10:01:28;;;;;;;5.22;1.60;;;26.00;97.20;;;;;;6211100;23;20379;-79
2022/08/22 10:04:22;;;;;;;2.30;1.65;;;25.90;96.10;;;;;;6212413;23;19997;-78
2022/08/22 10:07:30;;;;;;;5.72;1.80;;;25.90;97.10;;;;;;6211289;23;20443;-78
2022/08/22 10:10:20;;;;;;;5.97;2.05;;;25.80;97.90;;;;;;6191258;23;20419;-81
2022/08/22 10:13:11;;;;;;;2.50;2.05;;;25.70;96.60;;;;;;6210588;23;20160;-78
2022/08/22 10:15:47;;;;;;;1.85;1.70;;;25.60;99.10;;;;;;6212912;23;20005;-78
2022/08/22 10:18:35;;;;;;;1.90;1.80;;;25.50;99.80;;;;;;6211635;23;20016;-78
2022/08/22 10:21:11;;;;;;;3.55;2.10;;;25.40;99.90;;;;;;6210968;23;20447;-78
2022/08/22 10:23:46;;;;;;;4.43;1.88;;;25.30;99.90;;;;;;6210848;23;20494;-79
2022/08/22 10:26:30;;;;;;;2.25;1.70;;;25.40;99.90;;;;;;6211247;23;20491;-78
2022/08/22 10:29:26;;;;;;;2.20;1.80;;;25.40;99.90;;;;;;6212223;23;20328;-79
2022/08/22 10:32:00;;;;;;;3.22;2.15;;;25.50;99.90;;;;;;6212547;23;20032;-78
2022/08/22 10:34:45;;;;;;;4.38;1.98;;;25.50;99.90;;;;;;6210927;23;20032;-78
2022/08/22 10:37:35;;;;;;;3.83;1.70;;;25.60;99.90;;;;;;6210661;23;20004;-78
2022/08/22 10:40:09;;;;;;;1.80;1.70;;;25.70;99.50;;;;;;6211168;23;20095;-78
2022/08/22 10:42:50;;;;;;;3.95;1.90;;;25.80;99.90;;;;;;6211691;23;20012;-80
2022/08/22 10:45:35;;;;;;;3.92;1.50;;;26.00;98.40;;;;;;6214795;23;20009;-79
2022/08/22 10:48:04;;;;;;;1.65;1.50;;;26.20;97.80;;;;;;6213875;23;20024;-79
2022/08/22 10:50:35;;;;;;;6.57;1.90;;;26.50;97.10;;;;;;6213038;23;20051;-79
2022/08/22 10:53:29;;;;;;;2.70;1.80;;;26.70;97.20;;;;;;6214148;23;20082;-79
2022/08/22 10:56:03;;;;;;;3.10;1.63;;;26.80;96.80;;;;;;6213179;23;20047;-78
2022/08/22 10:58:34;;;;;;;2.22;1.75;;;27.00;96.70;;;;;;6212762;23;20032;-79
2022/08/22 11:01:03;;;;;;;4.15;1.92;;;27.00;95.20;;;;;;6214725;23;20344;-79
2022/08/22 11:03:59;;;;;;;1.73;1.63;;;27.20;95.80;;;;;;6214198;23;20000;-80
2022/08/22 11:06:29;;;;;;;4.38;2.08;;;27.30;97.50;;;;;;6212583;23;20036;-78
2022/08/22 11:09:22;;;;;;;3.28;1.70;;;27.50;98.00;;;;;;6213938;23;19997;-79
2022/08/22 11:12:11;;;;;;;2.03;1.85;;;27.60;96.60;;;;;;6212821;23;20005;-79
2022/08/22 11:14:40;;;;;;;2.40;1.75;;;27.50;95.90;;;;;;6214242;23;20001;-79
2022/08/22 11:17:21;;;;;;;2.97;1.67;;;27.50;96.50;;;;;;6211930;23;20356;-79
2022/08/22 11:20:07;;;;;;;2.08;1.67;;;27.50;96.20;;;;;;6212485;23;20068;-79
2022/08/22 11:22:58;;;;;;;2.20;1.90;;;27.40;96.90;;;;;;6213871;23;20012;-79
2022/08/22 11:25:43;;;;;;;6.63;1.90;;;27.30;96.50;;;;;;6214375;23;20428;-79
2022/08/22 11:28:20;;;;;;;3.50;1.88;;;27.20;96.70;;;;;;6212270;23;20001;-78
2022/08/22 11:31:12;;;;;;;2.42;1.80;;;27.10;97.00;;;;;;6213939;23;20004;-79
2022/08/22 11:33:58;;;;;;;1.52;1.42;;;27.10;96.80;;;;;;6213859;23;20455;-79
2022/08/22 11:36:43;;;;;;;1.77;1.60;;;27.20;96.40;;;;;;6212388;23;20013;-79
2022/08/22 11:39:39;;;;;;;3.92;1.70;;;27.20;95.80;;;;;;6213630;23;20004;-79
2022/08/22 11:42:16;;;;;;;1.63;1.52;;;27.40;96.20;;;;;;6213649;23;20031;-79
2022/08/22 11:44:45;;;;;;;4.00;1.80;;;27.70;95.90;;;;;;6213695;23;20004;-79
2022/08/22 11:47:15;;;;;;;1.75;1.25;;;28.00;95.10;;;;;;6213502;23;20116;-79
2022/08/22 11:49:58;;;;;;;1.20;1.05;;;28.20;94.40;;;;;;6214001;23;20060;-79
2022/08/22 11:52:45;;;;;;;1.98;1.60;;;28.30;93.00;;;;;;6213535;23;20005;-79
2022/08/22 11:56:01;;;;;;;1.33;1.23;;;28.60;92.50;;;;;;6213863;23;20105;-79
2022/08/22 11:58:54;;;;;;;1.73;1.33;;;28.80;91.40;;;;;;6180011;23;20058;-79
2022/08/22 12:01:47;;;;;;;1.30;1.20;;;29.10;91.50;;;;;;6211992;23;20036;-80
2022/08/22 12:04:25;;;;;;;1.35;1.13;;;29.50;91.80;;;;;;6213777;23;20000;-81
2022/08/22 12:06:59;;;;;;;3.63;1.50;;;29.70;92.80;;;;;;6213761;23;20008;-79
2022/08/22 12:09:43;;;;;;;3.67;1.35;;;30.20;92.60;;;;;;6213876;23;20011;-79
2022/08/22 12:12:18;;;;;;;1.92;1.27;;;30.60;91.00;;;;;;6213399;23;20042;-81
2022/08/22 12:15:14;;;;;;;3.80;1.35;;;30.70;91.60;;;;;;6212212;23;20001;-81
2022/08/22 12:18:23;;;;;;;1.20;1.10;;;30.40;92.00;;;;;;6159782;23;20344;-80
2022/08/22 12:21:08;;;;;;;1.33;1.23;;;29.90;92.80;;;;;;6213554;23;20475;-80
2022/08/22 12:23:52;;;;;;;2.33;1.33;;;29.40;92.80;;;;;;6213454;23;19997;-80
2022/08/22 12:26:36;;;;;;;2.97;1.63;;;28.90;93.80;;;;;;6212279;23;20012;-80
2022/08/22 12:29:17;;;;;;;1.45;1.35;;;28.70;92.50;;;;;;6213200;23;20008;-80
2022/08/22 12:32:02;;;;;;;2.42;1.30;;;28.60;93.40;;;;;;6213527;23;20011;-80
2022/08/22 12:34:39;;;;;;;1.67;1.40;;;28.50;93.30;;;;;;6211766;23;20005;-79
2022/08/22 12:37:05;;;;;;;4.70;1.60;;;28.50;92.90;;;;;;6211547;23;20443;-81
2022/08/22 12:39:36;;;;;;;3.03;1.40;;;28.70;93.70;;;;;;6210237;23;20043;-79
2022/08/22 12:42:17;;;;;;;2.08;1.20;;;28.80;93.80;;;;;;6210123;23;20087;-82
2022/08/22 12:45:11;;;;;;;1.50;1.40;;;28.90;93.00;;;;;;6219394;23;20111;-82
2022/08/22 12:47:55;;;;;;;1.95;1.55;;;29.30;93.40;;;;;;6213000;23;20001;-84
2022/08/22 12:50:36;;;;;;;2.22;1.30;;;29.50;93.00;;;;;;6213567;23;20005;-84
2022/08/22 12:53:36;;;;;;;1.90;1.45;;;29.70;93.50;;;;;;6213950;23;20055;-81
2022/08/22 12:56:23;;;;;;;1.77;1.60;;;30.00;93.20;;;;;;6215204;23;20009;-83
2022/08/22 12:59:14;;;;;;;1.77;1.45;;;29.70;93.10;;;;;;6211846;23;20432;-87
2022/08/22 13:01:43;;;;;;;13.57;1.70;;;29.40;94.10;;;;;;6208432;23;20083;-82
2022/08/22 13:04:28;;;;;;;1.40;1.30;;;29.40;93.90;;;;;;6211550;23;20000;-80
2022/08/22 13:06:58;;;;;;;4.53;1.70;;;29.50;94.50;;;;;;6213084;23;19996;-78
2022/08/22 13:09:29;;;;;;;2.45;1.50;;;29.50;94.40;;;;;;6211862;23;20059;-83
2022/08/22 13:12:00;;;;;;;1.75;1.60;;;29.50;94.50;;;;;;6213155;23;20424;-81
2022/08/22 13:14:28;;;;;;;1.60;1.50;;;29.60;94.60;;;;;;6213700;23;20028;-82
2022/08/22 13:16:59;;;;;;;1.52;1.40;;;29.50;94.60;;;;;;6212508;23;20019;-81
2022/08/22 13:19:30;;;;;;;1.33;1.23;;;29.50;95.00;;;;;;6213168;23;20004;-84
2022/08/22 13:22:06;;;;;;;2.70;1.40;;;29.60;95.20;;;;;;6211327;23;20095;-79
2022/08/22 13:24:40;;;;;;;2.55;1.65;;;29.50;94.70;;;;;;6211616;23;20009;-79
2022/08/22 13:27:20;;;;;;;3.03;1.50;;;29.50;94.80;;;;;;6212735;23;20008;-80
2022/08/22 13:29:55;;;;;;;1.60;1.20;;;29.50;95.40;;;;;;6213019;23;20440;-79
2022/08/22 13:32:38;;;;;;;2.30;1.38;;;29.90;95.20;;;;;;6211268;23;20075;-79
2022/08/22 13:35:07;;;;;;;3.10;1.35;;;30.20;94.40;;;;;;6211490;23;20027;-79
2022/08/22 13:37:43;;;;;;;1.88;1.45;;;30.30;94.40;;;;;;6210976;23;20952;-82
2022/08/22 13:40:30;;;;;;;1.95;1.40;;;30.40;94.60;;;;;;6213288;23;20012;-79
2022/08/22 13:43:09;;;;;;;1.40;1.30;;;30.40;95.40;;;;;;6212422;23;20067;-80
2022/08/22 13:45:38;;;;;;;2.67;1.40;;;30.50;94.90;;;;;;6213008;23;20432;-80
2022/08/22 13:48:14;;;;;;;3.90;1.52;;;30.40;94.90;;;;;;6212401;23;20020;-79
2022/08/22 13:51:13;;;;;;;2.00;1.38;;;30.00;95.40;;;;;;6213357;23;20053;-80
2022/08/22 13:53:44;;;;;;;2.55;1.35;;;29.70;96.00;;;;;;6212393;23;20122;-79
2022/08/22 13:56:21;;;;;;;3.28;1.55;;;29.50;96.20;;;;;;6211022;23;20001;-80
2022/08/22 13:58:59;;;;;;;1.52;1.30;;;29.30;96.00;;;;;;6212513;23;20054;-79
2022/08/22 14:01:37;;;;;;;2.10;1.30;;;29.20;96.60;;;;;;6212698;23;20448;-80
2022/08/22 14:04:27;;;;;;;3.85;1.20;;;29.20;96.70;;;;;;6212616;23;19997;-78